createdAt,value
2019-05-26T00:02:13.581Z,99.90
2019-05-26T00:04:47.196Z,99.90
2019-05-26T00:07:30.114Z,99.90
2019-05-26T00:09:56.011Z,99.90
2019-05-26T00:12:29.657Z,99.90
2019-05-26T00:15:04.008Z,99.90
2019-05-26T00:17:37.674Z,99.90
2019-05-26T00:23:48.487Z,99.90
2019-05-26T00:26:22.238Z,99.90
2019-05-26T00:28:55.891Z,99.90
2019-05-26T00:31:29.475Z,99.90
2019-05-26T00:34:03.421Z,99.90
2019-05-26T00:40:23.712Z,99.90
2019-05-26T00:42:57.350Z,99.90
2019-05-26T00:45:31.455Z,99.90
2019-05-26T00:48:05.774Z,99.90
2019-05-26T00:50:39.478Z,99.90
2019-05-26T00:53:13.124Z,99.90
2019-05-26T00:55:46.888Z,99.90
2019-05-26T00:58:20.716Z,99.90
2019-05-26T01:00:54.465Z,99.90
2019-05-26T01:03:28.063Z,99.90
2019-05-26T01:06:01.829Z,99.90
2019-05-26T01:08:35.475Z,99.90
2019-05-26T01:11:09.111Z,99.90
2019-05-26T01:13:42.686Z,99.90
2019-05-26T01:16:17.312Z,99.90
2019-05-26T01:18:50.981Z,99.90
2019-05-26T01:21:24.655Z,99.90
2019-05-26T01:23:58.237Z,99.90
2019-05-26T01:26:32.011Z,99.90
2019-05-26T01:29:05.973Z,99.90
2019-05-26T01:31:39.800Z,99.90
2019-05-26T01:34:14.451Z,99.90
2019-05-26T01:36:48.481Z,99.90
2019-05-26T01:39:22.065Z,99.90
2019-05-26T01:41:55.683Z,99.90
2019-05-26T01:44:29.415Z,99.90
2019-05-26T01:47:03.005Z,99.90
2019-05-26T01:49:36.624Z,99.90
2019-05-26T01:52:10.365Z,99.90
2019-05-26T01:54:43.989Z,99.90
2019-05-26T01:57:17.567Z,99.90
2019-05-26T01:59:51.249Z,99.90
2019-05-26T02:02:24.906Z,99.90
2019-05-26T02:04:58.540Z,99.90
2019-05-26T02:07:32.651Z,99.90
2019-05-26T02:10:08.257Z,99.90
2019-05-26T02:12:41.840Z,99.90
2019-05-26T02:15:16.219Z,99.90
2019-05-26T02:17:49.803Z,99.90
2019-05-26T02:24:00.547Z,99.90
2019-05-26T02:26:34.139Z,99.90
2019-05-26T02:29:07.770Z,99.90
2019-05-26T02:31:41.352Z,99.90
2019-05-26T02:34:15.044Z,99.90
2019-05-26T02:40:26.282Z,99.90
2019-05-26T02:42:59.946Z,99.90
2019-05-26T02:45:33.958Z,99.90
2019-05-26T02:48:07.604Z,99.90
2019-05-26T02:50:41.550Z,99.90
2019-05-26T02:53:15.552Z,99.90
2019-05-26T02:55:49.569Z,99.90
2019-05-26T02:58:23.291Z,99.90
2019-05-26T03:00:56.850Z,99.90
2019-05-26T03:03:30.584Z,99.90
2019-05-26T03:06:05.552Z,99.90
2019-05-26T03:08:39.593Z,99.90
2019-05-26T03:11:15.251Z,99.90
2019-05-26T03:13:50.090Z,99.90
2019-05-26T03:16:24.260Z,99.90
2019-05-26T03:19:00.342Z,99.90
2019-05-26T03:21:35.101Z,99.90
2019-05-26T03:24:08.785Z,99.90
2019-05-26T03:26:42.410Z,99.90
2019-05-26T03:29:16.020Z,99.90
2019-05-26T03:31:49.727Z,99.90
2019-05-26T03:34:23.416Z,99.90
2019-05-26T03:36:57.018Z,99.90
2019-05-26T03:39:43.747Z,99.90
2019-05-26T03:42:06.045Z,99.90
2019-05-26T03:44:39.683Z,99.90
2019-05-26T03:47:16.550Z,99.90
2019-05-26T03:49:48.590Z,99.90
2019-05-26T03:52:22.163Z,99.90
2019-05-26T03:54:55.859Z,99.90
2019-05-26T03:57:29.437Z,99.90
2019-05-26T04:00:04.976Z,99.90
2019-05-26T04:02:38.630Z,99.90
2019-05-26T04:05:12.804Z,99.90
2019-05-26T04:07:46.703Z,99.90
2019-05-26T04:10:23.171Z,99.90
2019-05-26T04:12:56.757Z,99.90
2019-05-26T04:15:30.406Z,99.90
2019-05-26T04:18:04.046Z,99.90
2019-05-26T04:20:38.663Z,99.90
2019-05-26T04:23:13.397Z,99.90
2019-05-26T04:25:47.098Z,99.90
2019-05-26T04:28:20.682Z,99.90
2019-05-26T04:30:54.356Z,99.90
2019-05-26T04:33:27.958Z,99.90
2019-05-26T04:39:38.666Z,99.90
2019-05-26T04:42:12.271Z,99.90
2019-05-26T04:44:45.914Z,99.90
2019-05-26T04:47:19.534Z,99.90
2019-05-26T04:49:53.330Z,99.90
2019-05-26T04:56:14.017Z,99.90
2019-05-26T04:58:47.688Z,99.90
2019-05-26T05:01:22.411Z,99.90
2019-05-26T05:03:55.955Z,99.90
2019-05-26T05:06:29.897Z,99.90
2019-05-26T05:09:04.838Z,99.90
2019-05-26T05:11:38.552Z,99.90
2019-05-26T05:14:12.209Z,99.90
2019-05-26T05:16:45.881Z,99.90
2019-05-26T05:19:19.449Z,99.90
2019-05-26T05:21:53.112Z,99.90
2019-05-26T05:24:26.715Z,99.90
2019-05-26T05:27:00.656Z,99.90
2019-05-26T05:29:34.277Z,99.90
2019-05-26T05:32:08.143Z,99.90
2019-05-26T05:34:41.838Z,99.90
2019-05-26T05:37:15.561Z,99.90
2019-05-26T05:39:49.250Z,99.90
2019-05-26T05:42:22.905Z,99.90
2019-05-26T05:44:57.573Z,99.90
2019-05-26T05:47:31.185Z,99.90
2019-05-26T05:50:08.822Z,99.90
2019-05-26T05:52:42.432Z,99.90
2019-05-26T05:55:17.200Z,99.90
2019-05-26T05:57:50.850Z,99.90
2019-05-26T06:00:24.885Z,99.90
2019-05-26T06:02:58.465Z,99.90
2019-05-26T06:05:32.465Z,99.90
2019-05-26T06:08:07.077Z,99.90
2019-05-26T06:10:40.712Z,99.90
2019-05-26T06:13:14.302Z,99.90
2019-05-26T06:15:47.930Z,99.90
2019-05-26T06:18:21.500Z,99.90
2019-05-26T06:20:55.119Z,99.90
2019-05-26T06:23:28.723Z,99.90
2019-05-26T06:26:02.448Z,99.90
2019-05-26T06:28:36.186Z,99.90
2019-05-26T06:31:09.842Z,99.90
2019-05-26T06:33:43.459Z,99.90
2019-05-26T06:39:54.215Z,99.90
2019-05-26T06:42:27.794Z,99.90
2019-05-26T06:45:01.497Z,99.90
2019-05-26T06:47:35.180Z,99.90
2019-05-26T06:50:11.650Z,99.90
2019-05-26T06:56:31.776Z,99.90
2019-05-26T06:59:05.526Z,99.90
2019-05-26T07:01:39.384Z,99.90
2019-05-26T07:04:12.974Z,99.90
2019-05-26T07:06:46.641Z,99.90
2019-05-26T07:09:20.309Z,99.90
2019-05-26T07:11:59.566Z,99.90
2019-05-26T07:14:29.181Z,99.90
2019-05-26T07:17:02.794Z,99.90
2019-05-26T07:19:36.387Z,99.90
2019-05-26T07:22:10.036Z,99.90
2019-05-26T07:24:43.621Z,99.90
2019-05-26T07:27:17.300Z,99.90
2019-05-26T07:29:51.093Z,99.90
2019-05-26T07:32:24.699Z,99.90
2019-05-26T07:34:58.354Z,99.90
2019-05-26T07:37:32.008Z,99.90
2019-05-26T07:40:06.320Z,99.90
2019-05-26T07:42:39.969Z,99.90
2019-05-26T07:45:14.134Z,99.90
2019-05-26T07:47:47.718Z,99.90
2019-05-26T07:50:21.356Z,99.90
2019-05-26T07:52:55.064Z,99.90
2019-05-26T07:55:28.804Z,99.90
2019-05-26T07:58:02.969Z,99.90
2019-05-26T08:00:36.829Z,99.90
2019-05-26T08:03:11.562Z,99.90
2019-05-26T08:05:45.588Z,99.90
2019-05-26T08:08:19.267Z,99.90
2019-05-26T08:10:53.093Z,99.90
2019-05-26T08:13:26.689Z,99.90
2019-05-26T08:16:00.394Z,99.90
2019-05-26T08:18:34.051Z,99.90
2019-05-26T08:21:07.710Z,99.90
2019-05-26T08:23:41.303Z,99.90
2019-05-26T08:26:14.973Z,99.90
2019-05-26T08:28:48.622Z,99.90
2019-05-26T08:31:22.987Z,99.90
2019-05-26T08:33:56.664Z,99.90
2019-05-26T08:36:30.383Z,99.90
2019-05-26T08:39:07.181Z,99.90
2019-05-26T08:41:40.774Z,99.90
2019-05-26T08:44:14.443Z,99.90
2019-05-26T08:46:48.118Z,99.90
2019-05-26T08:49:21.808Z,99.90
2019-05-26T08:55:36.317Z,99.90
2019-05-26T08:58:09.966Z,99.90
2019-05-26T09:00:43.714Z,99.90
2019-05-26T09:03:17.414Z,99.90
2019-05-26T09:05:51.075Z,99.90
2019-05-26T09:12:01.773Z,99.90
2019-05-26T09:14:36.290Z,99.90
2019-05-26T09:17:10.246Z,99.90
2019-05-26T09:19:43.829Z,99.90
2019-05-26T09:22:18.745Z,99.90
2019-05-26T09:24:52.420Z,99.90
2019-05-26T09:27:29.185Z,99.90
2019-05-26T09:30:02.827Z,99.90
2019-05-26T09:32:38.876Z,99.90
2019-05-26T09:35:13.754Z,99.90
2019-05-26T09:37:47.434Z,99.90
2019-05-26T09:40:21.815Z,99.90
2019-05-26T09:42:55.448Z,99.90
2019-05-26T09:45:29.028Z,99.90
2019-05-26T09:48:02.665Z,99.90
2019-05-26T09:50:36.524Z,99.90
2019-05-26T09:53:10.163Z,99.90
2019-05-26T09:55:43.747Z,99.90
2019-05-26T09:58:17.494Z,99.90
2019-05-26T10:00:51.121Z,99.90
2019-05-26T10:03:24.798Z,99.90
2019-05-26T10:05:58.430Z,99.90
2019-05-26T10:08:32.087Z,99.90
2019-05-26T10:11:06.221Z,99.90
2019-05-26T10:13:39.859Z,99.90
2019-05-26T10:16:13.600Z,99.90
2019-05-26T10:18:47.503Z,99.90
2019-05-26T10:21:21.143Z,99.90
2019-05-26T10:23:54.897Z,99.90
2019-05-26T10:26:28.530Z,99.90
2019-05-26T10:29:03.795Z,99.90
2019-05-26T10:31:40.421Z,99.90
2019-05-26T10:34:14.005Z,99.90
2019-05-26T10:36:47.743Z,99.90
2019-05-26T10:39:21.374Z,99.90
2019-05-26T10:41:55.144Z,98.40
2019-05-26T10:44:28.824Z,98.80
2019-05-26T10:47:02.502Z,98.60
2019-05-26T10:49:36.236Z,98.20
2019-05-26T10:55:50.895Z,99.60
2019-05-26T10:58:24.540Z,96.80
2019-05-26T11:00:58.246Z,96.50
2019-05-26T11:03:31.837Z,96.20
2019-05-26T11:06:05.719Z,95.30
2019-05-26T11:12:25.585Z,94.40
2019-05-26T11:14:59.195Z,94.20
2019-05-26T11:17:32.918Z,94.60
2019-05-26T11:20:11.295Z,94.10
2019-05-26T11:22:46.716Z,93.60
2019-05-26T11:25:20.441Z,93.90
2019-05-26T11:27:54.439Z,94.20
2019-05-26T11:30:28.455Z,94.60
2019-05-26T11:33:02.106Z,95.20
2019-05-26T11:35:35.722Z,94.30
2019-05-26T11:38:09.320Z,95.00
2019-05-26T11:40:43.001Z,94.40
2019-05-26T11:43:17.498Z,94.80
2019-05-26T11:45:51.270Z,94.70
2019-05-26T11:48:25.104Z,94.50
2019-05-26T11:50:58.922Z,94.70
2019-05-26T11:53:32.655Z,95.60
2019-05-26T11:56:06.257Z,94.20
2019-05-26T11:58:39.938Z,94.10
2019-05-26T12:01:13.560Z,94.80
2019-05-26T12:03:47.196Z,94.10
2019-05-26T12:06:20.908Z,93.00
2019-05-26T12:08:54.677Z,93.00
2019-05-26T12:11:28.344Z,93.20
2019-05-26T12:14:01.988Z,91.90
2019-05-26T12:16:35.584Z,91.80
2019-05-26T12:19:09.637Z,91.20
2019-05-26T12:21:43.401Z,90.20
2019-05-26T12:24:17.051Z,91.40
2019-05-26T12:26:50.627Z,90.20
2019-05-26T12:29:24.404Z,90.50
2019-05-26T12:31:58.013Z,91.40
2019-05-26T12:34:31.649Z,91.20
2019-05-26T12:37:05.292Z,91.30
2019-05-26T12:39:38.923Z,90.90
2019-05-26T12:42:12.651Z,91.00
2019-05-26T12:44:49.859Z,91.00
2019-05-26T12:47:22.392Z,91.00
2019-05-26T12:49:56.067Z,90.10
2019-05-26T12:56:07.053Z,90.50
2019-05-26T12:58:40.719Z,90.40
2019-05-26T13:01:14.444Z,90.80
2019-05-26T13:03:48.106Z,90.80
2019-05-26T13:06:21.805Z,90.70
2019-05-26T13:12:41.404Z,90.80
2019-05-26T13:15:15.927Z,90.00
2019-05-26T13:17:49.868Z,90.20
2019-05-26T13:20:27.539Z,88.00
2019-05-26T13:23:01.251Z,87.80
2019-05-26T13:25:34.831Z,89.70
2019-05-26T13:28:08.649Z,90.60
2019-05-26T13:30:42.341Z,90.80
2019-05-26T13:33:15.959Z,92.30
2019-05-26T13:35:49.610Z,92.60
2019-05-26T13:38:23.286Z,92.60
2019-05-26T13:40:56.967Z,93.70
2019-05-26T13:43:30.617Z,93.60
2019-05-26T13:46:04.395Z,94.40
2019-05-26T13:48:38.126Z,94.80
2019-05-26T13:51:11.821Z,95.50
2019-05-26T13:53:45.477Z,95.70
2019-05-26T13:56:19.116Z,95.60
2019-05-26T13:58:52.772Z,95.60
2019-05-26T14:01:26.442Z,96.30
2019-05-26T14:04:00.020Z,96.80
2019-05-26T14:06:33.693Z,97.20
2019-05-26T14:09:09.308Z,97.90
2019-05-26T14:11:43.159Z,98.00
2019-05-26T14:14:16.999Z,98.10
2019-05-26T14:16:52.663Z,98.40
2019-05-26T14:19:28.466Z,98.40
2019-05-26T14:22:02.088Z,97.50
2019-05-26T14:24:35.750Z,98.00
2019-05-26T14:27:09.471Z,99.00
2019-05-26T14:29:43.093Z,98.40
2019-05-26T14:32:16.837Z,98.30
2019-05-26T14:34:50.452Z,98.40
2019-05-26T14:37:24.109Z,99.00
2019-05-26T14:39:58.064Z,99.40
2019-05-26T14:42:31.698Z,99.40
2019-05-26T14:45:06.528Z,99.50
2019-05-26T14:47:40.199Z,99.70
2019-05-26T14:50:14.298Z,99.90
2019-05-26T14:56:15.834Z,99.90
2019-05-26T14:58:49.492Z,99.90
2019-05-26T15:01:23.248Z,99.90
2019-05-26T15:03:56.868Z,99.90
2019-05-26T15:06:30.526Z,99.90
2019-05-26T15:12:41.422Z,99.90
2019-05-26T15:15:15.456Z,99.90
2019-05-26T15:17:49.453Z,99.90
2019-05-26T15:20:23.183Z,99.90
2019-05-26T15:22:56.878Z,99.90
2019-05-26T15:25:30.546Z,99.90
2019-05-26T15:28:04.325Z,99.90
2019-05-26T15:30:38.599Z,99.90
2019-05-26T15:33:12.252Z,99.90
2019-05-26T15:35:45.994Z,99.90
2019-05-26T15:38:19.617Z,99.90
2019-05-26T15:40:53.192Z,99.90
2019-05-26T15:43:26.823Z,99.90
2019-05-26T15:46:00.417Z,99.90
2019-05-26T15:48:34.048Z,99.90
2019-05-26T15:51:07.695Z,99.90
2019-05-26T15:53:41.354Z,99.90
2019-05-26T15:56:14.965Z,99.90
2019-05-26T15:58:48.590Z,99.90
2019-05-26T16:01:22.252Z,99.90
2019-05-26T16:03:55.957Z,99.90
2019-05-26T16:06:29.613Z,99.90
2019-05-26T16:09:04.222Z,99.90
2019-05-26T16:11:37.805Z,99.90
2019-05-26T16:14:12.100Z,99.90
2019-05-26T16:16:45.828Z,99.90
2019-05-26T16:19:19.571Z,99.90
2019-05-26T16:21:53.109Z,99.90
2019-05-26T16:24:27.086Z,99.90
2019-05-26T16:27:17.838Z,99.90
2019-05-26T16:29:36.050Z,99.90
2019-05-26T16:32:09.812Z,99.90
2019-05-26T16:34:43.496Z,99.90
2019-05-26T16:37:17.145Z,99.90
2019-05-26T16:39:51.096Z,99.90
2019-05-26T16:42:24.738Z,99.90
2019-05-26T16:44:58.412Z,99.90
2019-05-26T16:47:32.037Z,99.90
2019-05-26T16:50:07.417Z,99.90
2019-05-26T16:52:41.393Z,99.90
2019-05-26T16:55:16.061Z,99.90
2019-05-26T16:57:49.694Z,99.90
2019-05-26T17:00:23.465Z,99.90
2019-05-26T17:02:57.988Z,99.90
2019-05-26T17:05:31.574Z,99.90
2019-05-26T17:08:05.425Z,99.90
2019-05-26T17:10:39.220Z,99.90
2019-05-26T17:13:12.855Z,99.90
2019-05-26T17:15:46.437Z,99.90
2019-05-26T17:18:20.067Z,99.90
2019-05-26T17:20:53.646Z,99.90
2019-05-26T17:26:59.731Z,99.90
2019-05-26T17:29:33.331Z,99.90
2019-05-26T17:32:07.030Z,99.90
2019-05-26T17:34:40.635Z,99.90
2019-05-26T17:37:14.416Z,99.90
2019-05-26T17:43:34.325Z,99.90
2019-05-26T17:46:08.105Z,99.90
2019-05-26T17:48:41.794Z,99.90
2019-05-26T17:51:15.367Z,99.90
2019-05-26T17:53:49.079Z,99.90
2019-05-26T17:56:22.853Z,99.90
2019-05-26T17:58:56.574Z,99.90
2019-05-26T18:01:30.140Z,99.90
2019-05-26T18:04:05.373Z,99.90
2019-05-26T18:06:39.037Z,99.90
2019-05-26T18:09:12.675Z,99.90
2019-05-26T18:11:46.283Z,99.90
2019-05-26T18:14:20.014Z,99.90
2019-05-26T18:16:53.583Z,99.90
2019-05-26T18:19:29.606Z,99.90
2019-05-26T18:22:02.699Z,99.90
2019-05-26T18:24:36.518Z,99.90
2019-05-26T18:27:10.193Z,99.90
2019-05-26T18:29:43.969Z,99.90
2019-05-26T18:32:17.677Z,99.90
2019-05-26T18:34:51.454Z,99.90
2019-05-26T18:37:25.055Z,99.90
2019-05-26T18:39:58.759Z,99.90
2019-05-26T18:42:32.408Z,99.90
2019-05-26T18:45:09.669Z,99.90
2019-05-26T18:47:43.421Z,99.90
2019-05-26T18:50:17.199Z,99.90
2019-05-26T18:52:51.123Z,99.90
2019-05-26T18:55:24.942Z,99.90
2019-05-26T18:57:58.714Z,99.90
2019-05-26T19:00:32.447Z,99.90
2019-05-26T19:03:06.220Z,99.90
2019-05-26T19:05:39.810Z,99.90
2019-05-26T19:08:13.479Z,99.90
2019-05-26T19:10:47.136Z,99.90
2019-05-26T19:13:20.783Z,99.90
2019-05-26T19:15:54.530Z,99.90
2019-05-26T19:18:28.292Z,99.90
2019-05-26T19:21:01.916Z,99.90
2019-05-26T19:23:35.501Z,99.90
2019-05-26T19:26:09.131Z,99.90
2019-05-26T19:28:42.786Z,99.90
2019-05-26T19:31:16.463Z,99.90
2019-05-26T19:33:50.273Z,99.90
2019-05-26T19:36:23.879Z,99.90
2019-05-26T19:42:35.777Z,99.90
2019-05-26T19:45:09.769Z,99.90
2019-05-26T19:47:43.488Z,99.90
2019-05-26T19:50:17.441Z,99.90
2019-05-26T19:52:51.158Z,99.90
2019-05-26T19:59:11.105Z,99.90
2019-05-26T20:01:44.801Z,99.90
2019-05-26T20:04:18.459Z,99.90
2019-05-26T20:06:52.103Z,99.90
2019-05-26T20:09:25.842Z,99.90
2019-05-26T20:11:59.542Z,99.90
2019-05-26T20:14:33.498Z,99.90
2019-05-26T20:17:07.675Z,99.90
2019-05-26T20:19:41.271Z,99.90
2019-05-26T20:22:14.896Z,99.90
2019-05-26T20:24:48.644Z,99.90
2019-05-26T20:27:22.445Z,99.90
2019-05-26T20:29:56.106Z,99.90
2019-05-26T20:32:29.891Z,99.90
2019-05-26T20:35:05.021Z,99.90
2019-05-26T20:37:38.731Z,99.90
2019-05-26T20:40:13.813Z,99.90
2019-05-26T20:42:47.459Z,99.90
2019-05-26T20:45:21.237Z,99.90
2019-05-26T20:47:54.863Z,99.90
2019-05-26T20:50:29.821Z,99.90
2019-05-26T20:53:03.870Z,99.90
2019-05-26T20:55:37.614Z,99.90
2019-05-26T20:58:11.466Z,99.90
2019-05-26T21:00:45.365Z,99.90
2019-05-26T21:03:19.010Z,99.90
2019-05-26T21:05:52.678Z,99.90
2019-05-26T21:08:26.458Z,99.90
2019-05-26T21:11:00.108Z,99.90
2019-05-26T21:13:33.759Z,99.90
2019-05-26T21:16:07.386Z,99.90
2019-05-26T21:18:41.016Z,99.90
2019-05-26T21:21:14.693Z,99.90
2019-05-26T21:23:48.467Z,99.90
2019-05-26T21:26:22.145Z,99.90
2019-05-26T21:28:55.756Z,99.90
2019-05-26T21:31:29.504Z,99.90
2019-05-26T21:34:03.248Z,99.90
2019-05-26T21:36:37.240Z,99.90
2019-05-26T21:39:10.866Z,99.90
2019-05-26T21:41:44.519Z,99.90
2019-05-26T21:44:18.517Z,99.90
2019-05-26T21:46:52.155Z,99.90
2019-05-26T21:49:25.816Z,99.90
2019-05-26T21:51:59.441Z,99.90
2019-05-26T21:58:19.365Z,99.90
2019-05-26T22:00:53.390Z,99.90
2019-05-26T22:03:28.191Z,99.90
2019-05-26T22:06:01.875Z,99.90
2019-05-26T22:08:35.522Z,99.90
2019-05-26T22:14:55.042Z,99.90
2019-05-26T22:17:28.623Z,99.90
2019-05-26T22:20:02.818Z,99.90
2019-05-26T22:22:36.422Z,99.90
2019-05-26T22:25:10.267Z,99.90
2019-05-26T22:27:43.983Z,99.90
2019-05-26T22:30:18.126Z,99.90
2019-05-26T22:32:51.763Z,99.90
2019-05-26T22:35:25.447Z,99.90
2019-05-26T22:37:59.051Z,99.90
2019-05-26T22:40:32.999Z,99.90
2019-05-26T22:43:06.651Z,99.90
2019-05-26T22:45:40.300Z,99.90
2019-05-26T22:48:14.070Z,99.90
2019-05-26T22:50:47.670Z,99.90
2019-05-26T22:53:21.296Z,99.90
2019-05-26T22:55:54.893Z,99.90
2019-05-26T22:58:29.437Z,99.90
2019-05-26T23:01:04.069Z,99.90
2019-05-26T23:03:38.011Z,99.90
2019-05-26T23:06:11.590Z,99.90
2019-05-26T23:08:45.244Z,99.90
2019-05-26T23:11:18.834Z,99.90
2019-05-26T23:13:52.530Z,99.90
2019-05-26T23:16:26.248Z,99.90
2019-05-26T23:18:59.926Z,99.90
2019-05-26T23:21:33.652Z,99.90
2019-05-26T23:24:07.419Z,99.90
2019-05-26T23:26:41.026Z,99.90
2019-05-26T23:29:15.329Z,99.90
2019-05-26T23:31:49.242Z,99.90
2019-05-26T23:34:22.965Z,99.90
2019-05-26T23:36:56.591Z,99.90
2019-05-26T23:39:30.217Z,99.90
2019-05-26T23:42:03.853Z,99.90
2019-05-26T23:44:37.490Z,99.90
2019-05-26T23:47:11.296Z,99.90
2019-05-26T23:49:44.917Z,99.90
2019-05-26T23:52:19.470Z,99.90
2019-05-26T23:54:53.398Z,99.90
2019-05-26T23:57:27.089Z,99.90
